sensor_id;sensor_type;location;lat;lon;timestamp;P1;durP1;ratioP1;P2;durP2;ratioP2
44772;SDS011;30492;52.088;5.122;2022-08-24T00:02:19;13.50;;;9.93;;
44772;SDS011;30492;52.088;5.122;2022-08-24T00:05:57;12.77;;;8.75;;
44772;SDS011;30492;52.088;5.122;2022-08-24T00:09:36;15.20;;;9.18;;
44772;SDS011;30492;52.088;5.122;2022-08-24T00:13:15;12.27;;;8.53;;
44772;SDS011;30492;52.088;5.122;2022-08-24T00:16:55;13.13;;;8.57;;
44772;SDS011;30492;52.088;5.122;2022-08-24T00:20:14;11.75;;;8.32;;
44772;SDS011;30492;52.088;5.122;2022-08-24T00:23:53;13.40;;;8.38;;
44772;SDS011;30492;52.088;5.122;2022-08-24T00:27:33;12.48;;;9.65;;
44772;SDS011;30492;52.088;5.122;2022-08-24T00:31:12;10.88;;;8.43;;
44772;SDS011;30492;52.088;5.122;2022-08-24T00:34:53;14.90;;;9.70;;
44772;SDS011;30492;52.088;5.122;2022-08-24T00:38:32;12.27;;;8.93;;
44772;SDS011;30492;52.088;5.122;2022-08-24T00:41:52;17.50;;;7.97;;
44772;SDS011;30492;52.088;5.122;2022-08-24T00:45:33;12.98;;;8.73;;
44772;SDS011;30492;52.088;5.122;2022-08-24T00:49:28;9.90;;;8.07;;
44772;SDS011;30492;52.088;5.122;2022-08-24T00:53:15;12.05;;;7.10;;
44772;SDS011;30492;52.088;5.122;2022-08-24T00:56:58;11.40;;;8.15;;
44772;SDS011;30492;52.088;5.122;2022-08-24T01:00:42;19.33;;;10.50;;
44772;SDS011;30492;52.088;5.122;2022-08-24T01:04:26;14.18;;;10.02;;
44772;SDS011;30492;52.088;5.122;2022-08-24T01:08:10;14.65;;;10.07;;
44772;SDS011;30492;52.088;5.122;2022-08-24T01:11:51;13.55;;;8.88;;
44772;SDS011;30492;52.088;5.122;2022-08-24T01:15:32;16.95;;;9.93;;
44772;SDS011;30492;52.088;5.122;2022-08-24T01:19:15;14.93;;;9.13;;
44772;SDS011;30492;52.088;5.122;2022-08-24T01:23:00;15.20;;;9.07;;
44772;SDS011;30492;52.088;5.122;2022-08-24T01:26:46;18.63;;;9.25;;
44772;SDS011;30492;52.088;5.122;2022-08-24T01:30:25;23.40;;;11.38;;
44772;SDS011;30492;52.088;5.122;2022-08-24T01:34:05;10.02;;;8.73;;
44772;SDS011;30492;52.088;5.122;2022-08-24T01:37:48;15.25;;;9.45;;
44772;SDS011;30492;52.088;5.122;2022-08-24T01:41:27;17.08;;;10.18;;
44772;SDS011;30492;52.088;5.122;2022-08-24T01:45:08;15.63;;;9.85;;
44772;SDS011;30492;52.088;5.122;2022-08-24T01:48:47;14.18;;;9.00;;
44772;SDS011;30492;52.088;5.122;2022-08-24T01:52:26;15.70;;;9.88;;
44772;SDS011;30492;52.088;5.122;2022-08-24T01:56:04;13.18;;;8.70;;
44772;SDS011;30492;52.088;5.122;2022-08-24T01:59:43;12.73;;;9.10;;
44772;SDS011;30492;52.088;5.122;2022-08-24T02:03:23;14.20;;;8.45;;
44772;SDS011;30492;52.088;5.122;2022-08-24T02:07:01;15.13;;;10.23;;
44772;SDS011;30492;52.088;5.122;2022-08-24T02:10:41;15.05;;;9.50;;
44772;SDS011;30492;52.088;5.122;2022-08-24T02:14:19;14.98;;;10.43;;
44772;SDS011;30492;52.088;5.122;2022-08-24T02:17:59;19.37;;;10.20;;
44772;SDS011;30492;52.088;5.122;2022-08-24T02:21:41;13.77;;;10.25;;
44772;SDS011;30492;52.088;5.122;2022-08-24T02:25:19;14.00;;;11.25;;
44772;SDS011;30492;52.088;5.122;2022-08-24T02:28:58;16.37;;;9.97;;
44772;SDS011;30492;52.088;5.122;2022-08-24T02:32:36;12.88;;;9.93;;
44772;SDS011;30492;52.088;5.122;2022-08-24T02:36:15;20.05;;;12.45;;
44772;SDS011;30492;52.088;5.122;2022-08-24T02:43:34;12.38;;;10.48;;
44772;SDS011;30492;52.088;5.122;2022-08-24T02:46:52;17.30;;;11.52;;
44772;SDS011;30492;52.088;5.122;2022-08-24T02:50:31;15.57;;;10.80;;
44772;SDS011;30492;52.088;5.122;2022-08-24T02:54:11;17.10;;;11.60;;
44772;SDS011;30492;52.088;5.122;2022-08-24T02:57:52;17.70;;;11.77;;
44772;SDS011;30492;52.088;5.122;2022-08-24T03:01:29;16.58;;;12.00;;
44772;SDS011;30492;52.088;5.122;2022-08-24T03:05:08;15.40;;;11.25;;
44772;SDS011;30492;52.088;5.122;2022-08-24T03:08:48;19.27;;;11.40;;
44772;SDS011;30492;52.088;5.122;2022-08-24T03:12:27;18.52;;;11.82;;
44772;SDS011;30492;52.088;5.122;2022-08-24T03:16:08;11.98;;;10.65;;
44772;SDS011;30492;52.088;5.122;2022-08-24T03:19:45;16.40;;;12.95;;
44772;SDS011;30492;52.088;5.122;2022-08-24T03:23:24;17.88;;;12.07;;
44772;SDS011;30492;52.088;5.122;2022-08-24T03:30:43;18.33;;;11.98;;
44772;SDS011;30492;52.088;5.122;2022-08-24T03:34:23;19.17;;;12.70;;
44772;SDS011;30492;52.088;5.122;2022-08-24T03:38:00;19.65;;;12.85;;
44772;SDS011;30492;52.088;5.122;2022-08-24T03:41:38;17.58;;;12.93;;
44772;SDS011;30492;52.088;5.122;2022-08-24T03:45:16;23.10;;;13.32;;
44772;SDS011;30492;52.088;5.122;2022-08-24T03:48:55;21.92;;;14.48;;
44772;SDS011;30492;52.088;5.122;2022-08-24T03:52:37;16.67;;;14.32;;
44772;SDS011;30492;52.088;5.122;2022-08-24T03:56:17;18.48;;;14.27;;
44772;SDS011;30492;52.088;5.122;2022-08-24T03:59:54;15.35;;;13.50;;
44772;SDS011;30492;52.088;5.122;2022-08-24T04:03:38;18.75;;;13.85;;
44772;SDS011;30492;52.088;5.122;2022-08-24T04:07:23;17.60;;;14.57;;
44772;SDS011;30492;52.088;5.122;2022-08-24T04:11:04;18.48;;;14.68;;
44772;SDS011;30492;52.088;5.122;2022-08-24T04:14:46;20.98;;;16.10;;
44772;SDS011;30492;52.088;5.122;2022-08-24T04:18:26;21.02;;;15.18;;
44772;SDS011;30492;52.088;5.122;2022-08-24T04:21:45;19.38;;;16.35;;
44772;SDS011;30492;52.088;5.122;2022-08-24T04:25:22;22.83;;;16.67;;
44772;SDS011;30492;52.088;5.122;2022-08-24T04:29:02;23.50;;;15.18;;
44772;SDS011;30492;52.088;5.122;2022-08-24T04:32:48;19.20;;;15.13;;
44772;SDS011;30492;52.088;5.122;2022-08-24T04:36:26;22.35;;;16.48;;
44772;SDS011;30492;52.088;5.122;2022-08-24T04:40:06;25.80;;;16.27;;
44772;SDS011;30492;52.088;5.122;2022-08-24T04:43:47;19.10;;;15.57;;
44772;SDS011;30492;52.088;5.122;2022-08-24T04:47:27;22.83;;;16.73;;
44772;SDS011;30492;52.088;5.122;2022-08-24T04:51:07;24.48;;;16.70;;
44772;SDS011;30492;52.088;5.122;2022-08-24T04:54:46;21.73;;;17.23;;
44772;SDS011;30492;52.088;5.122;2022-08-24T04:58:25;20.20;;;15.93;;
44772;SDS011;30492;52.088;5.122;2022-08-24T05:05:46;23.58;;;16.27;;
44772;SDS011;30492;52.088;5.122;2022-08-24T05:09:26;21.83;;;17.45;;
44772;SDS011;30492;52.088;5.122;2022-08-24T05:13:04;22.55;;;16.90;;
44772;SDS011;30492;52.088;5.122;2022-08-24T05:16:43;22.10;;;17.42;;
44772;SDS011;30492;52.088;5.122;2022-08-24T05:20:22;22.52;;;17.20;;
44772;SDS011;30492;52.088;5.122;2022-08-24T05:24:01;25.10;;;18.30;;
44772;SDS011;30492;52.088;5.122;2022-08-24T05:31:22;25.33;;;16.83;;
44772;SDS011;30492;52.088;5.122;2022-08-24T05:35:06;20.17;;;16.35;;
44772;SDS011;30492;52.088;5.122;2022-08-24T05:38:46;19.52;;;15.07;;
44772;SDS011;30492;52.088;5.122;2022-08-24T05:42:27;19.88;;;15.48;;
44772;SDS011;30492;52.088;5.122;2022-08-24T05:46:05;23.50;;;15.60;;
44772;SDS011;30492;52.088;5.122;2022-08-24T05:49:43;24.85;;;14.15;;
44772;SDS011;30492;52.088;5.122;2022-08-24T05:53:30;21.55;;;15.30;;
44772;SDS011;30492;52.088;5.122;2022-08-24T05:57:11;20.02;;;14.70;;
44772;SDS011;30492;52.088;5.122;2022-08-24T06:01:10;26.60;;;15.32;;
44772;SDS011;30492;52.088;5.122;2022-08-24T06:04:52;19.70;;;13.63;;
44772;SDS011;30492;52.088;5.122;2022-08-24T06:08:30;13.27;;;10.73;;
44772;SDS011;30492;52.088;5.122;2022-08-24T06:12:09;18.05;;;12.82;;
44772;SDS011;30492;52.088;5.122;2022-08-24T06:19:28;17.02;;;11.15;;
44772;SDS011;30492;52.088;5.122;2022-08-24T06:23:07;21.67;;;11.82;;
44772;SDS011;30492;52.088;5.122;2022-08-24T06:26:54;15.48;;;10.60;;
44772;SDS011;30492;52.088;5.122;2022-08-24T06:30:59;19.65;;;11.25;;
44772;SDS011;30492;52.088;5.122;2022-08-24T06:34:42;16.85;;;12.65;;
44772;SDS011;30492;52.088;5.122;2022-08-24T06:38:22;15.82;;;12.77;;
44772;SDS011;30492;52.088;5.122;2022-08-24T06:42:01;17.98;;;11.73;;
44772;SDS011;30492;52.088;5.122;2022-08-24T06:45:44;14.02;;;9.48;;
44772;SDS011;30492;52.088;5.122;2022-08-24T06:49:27;13.82;;;9.05;;
44772;SDS011;30492;52.088;5.122;2022-08-24T06:53:07;17.85;;;15.02;;
44772;SDS011;30492;52.088;5.122;2022-08-24T06:56:47;14.15;;;8.15;;
44772;SDS011;30492;52.088;5.122;2022-08-24T07:00:27;19.27;;;11.65;;
44772;SDS011;30492;52.088;5.122;2022-08-24T07:04:06;14.40;;;8.38;;
44772;SDS011;30492;52.088;5.122;2022-08-24T07:08:04;13.88;;;5.93;;
44772;SDS011;30492;52.088;5.122;2022-08-24T07:11:44;18.67;;;9.93;;
44772;SDS011;30492;52.088;5.122;2022-08-24T07:15:24;18.58;;;12.35;;
44772;SDS011;30492;52.088;5.122;2022-08-24T07:19:08;10.75;;;6.80;;
44772;SDS011;30492;52.088;5.122;2022-08-24T07:22:50;10.93;;;8.65;;
44772;SDS011;30492;52.088;5.122;2022-08-24T07:26:29;13.43;;;9.02;;
44772;SDS011;30492;52.088;5.122;2022-08-24T07:30:10;14.77;;;6.90;;
44772;SDS011;30492;52.088;5.122;2022-08-24T07:33:49;7.43;;;4.75;;
44772;SDS011;30492;52.088;5.122;2022-08-24T07:37:28;13.95;;;8.15;;
44772;SDS011;30492;52.088;5.122;2022-08-24T07:41:09;17.42;;;9.27;;
44772;SDS011;30492;52.088;5.122;2022-08-24T07:44:48;18.43;;;11.13;;
44772;SDS011;30492;52.088;5.122;2022-08-24T07:48:28;17.90;;;10.30;;
44772;SDS011;30492;52.088;5.122;2022-08-24T07:55:50;16.70;;;8.45;;
44772;SDS011;30492;52.088;5.122;2022-08-24T07:59:31;19.48;;;11.88;;
44772;SDS011;30492;52.088;5.122;2022-08-24T08:03:10;19.77;;;13.23;;
44772;SDS011;30492;52.088;5.122;2022-08-24T08:06:50;18.47;;;8.73;;
44772;SDS011;30492;52.088;5.122;2022-08-24T08:10:31;20.27;;;10.23;;
44772;SDS011;30492;52.088;5.122;2022-08-24T08:14:10;13.38;;;8.20;;
44772;SDS011;30492;52.088;5.122;2022-08-24T08:17:49;12.43;;;8.60;;
44772;SDS011;30492;52.088;5.122;2022-08-24T08:21:29;10.23;;;5.15;;
44772;SDS011;30492;52.088;5.122;2022-08-24T08:25:25;12.65;;;6.72;;
44772;SDS011;30492;52.088;5.122;2022-08-24T08:29:12;11.18;;;6.28;;
44772;SDS011;30492;52.088;5.122;2022-08-24T08:32:50;4.75;;;3.60;;
44772;SDS011;30492;52.088;5.122;2022-08-24T08:36:29;10.15;;;4.78;;
44772;SDS011;30492;52.088;5.122;2022-08-24T08:40:12;11.48;;;5.80;;
44772;SDS011;30492;52.088;5.122;2022-08-24T08:44:02;8.43;;;3.88;;
44772;SDS011;30492;52.088;5.122;2022-08-24T08:52:12;13.23;;;5.32;;
44772;SDS011;30492;52.088;5.122;2022-08-24T08:56:17;10.27;;;5.20;;
44772;SDS011;30492;52.088;5.122;2022-08-24T09:00:05;7.80;;;3.97;;
44772;SDS011;30492;52.088;5.122;2022-08-24T09:04:01;11.82;;;8.48;;
44772;SDS011;30492;52.088;5.122;2022-08-24T09:08:04;8.75;;;5.47;;
44772;SDS011;30492;52.088;5.122;2022-08-24T09:15:55;6.75;;;3.17;;
44772;SDS011;30492;52.088;5.122;2022-08-24T09:19:49;7.80;;;3.53;;
44772;SDS011;30492;52.088;5.122;2022-08-24T09:23:42;9.13;;;3.95;;
44772;SDS011;30492;52.088;5.122;2022-08-24T09:27:30;9.07;;;5.15;;
44772;SDS011;30492;52.088;5.122;2022-08-24T09:31:31;7.93;;;4.28;;
44772;SDS011;30492;52.088;5.122;2022-08-24T09:35:32;15.07;;;6.45;;
44772;SDS011;30492;52.088;5.122;2022-08-24T09:39:22;4.32;;;2.50;;
44772;SDS011;30492;52.088;5.122;2022-08-24T09:43:31;5.50;;;3.05;;
44772;SDS011;30492;52.088;5.122;2022-08-24T09:47:46;6.45;;;3.22;;
44772;SDS011;30492;52.088;5.122;2022-08-24T09:51:54;11.30;;;3.58;;
44772;SDS011;30492;52.088;5.122;2022-08-24T09:59:57;6.68;;;2.40;;
44772;SDS011;30492;52.088;5.122;2022-08-24T10:03:50;8.48;;;2.90;;
44772;SDS011;30492;52.088;5.122;2022-08-24T10:07:39;4.13;;;2.05;;
44772;SDS011;30492;52.088;5.122;2022-08-24T10:11:32;3.78;;;1.38;;
44772;SDS011;30492;52.088;5.122;2022-08-24T10:15:18;8.60;;;2.50;;
44772;SDS011;30492;52.088;5.122;2022-08-24T10:19:06;2.88;;;1.75;;
44772;SDS011;30492;52.088;5.122;2022-08-24T10:23:02;4.60;;;2.22;;
44772;SDS011;30492;52.088;5.122;2022-08-24T10:26:54;7.80;;;2.45;;
44772;SDS011;30492;52.088;5.122;2022-08-24T10:30:46;3.15;;;1.30;;
44772;SDS011;30492;52.088;5.122;2022-08-24T10:34:38;5.43;;;1.70;;
44772;SDS011;30492;52.088;5.122;2022-08-24T10:38:29;6.97;;;1.77;;
44772;SDS011;30492;52.088;5.122;2022-08-24T10:42:43;5.07;;;1.98;;
44772;SDS011;30492;52.088;5.122;2022-08-24T10:47:00;2.45;;;1.33;;
44772;SDS011;30492;52.088;5.122;2022-08-24T10:50:47;8.02;;;2.63;;
44772;SDS011;30492;52.088;5.122;2022-08-24T10:54:32;2.92;;;1.33;;
44772;SDS011;30492;52.088;5.122;2022-08-24T11:02:27;4.15;;;1.55;;
44772;SDS011;30492;52.088;5.122;2022-08-24T11:06:14;2.92;;;1.52;;
44772;SDS011;30492;52.088;5.122;2022-08-24T11:09:55;2.72;;;1.20;;
44772;SDS011;30492;52.088;5.122;2022-08-24T11:13:37;1.67;;;1.02;;
44772;SDS011;30492;52.088;5.122;2022-08-24T11:17:30;4.53;;;2.60;;
44772;SDS011;30492;52.088;5.122;2022-08-24T11:21:10;2.75;;;1.90;;
44772;SDS011;30492;52.088;5.122;2022-08-24T11:25:13;6.68;;;2.05;;
44772;SDS011;30492;52.088;5.122;2022-08-24T11:28:57;8.18;;;2.00;;
44772;SDS011;30492;52.088;5.122;2022-08-24T11:32:39;4.55;;;1.80;;
44772;SDS011;30492;52.088;5.122;2022-08-24T11:36:21;5.97;;;1.63;;
44772;SDS011;30492;52.088;5.122;2022-08-24T11:40:06;4.13;;;0.98;;
44772;SDS011;30492;52.088;5.122;2022-08-24T11:43:52;3.78;;;1.10;;
44772;SDS011;30492;52.088;5.122;2022-08-24T11:47:51;1.23;;;0.90;;
44772;SDS011;30492;52.088;5.122;2022-08-24T11:51:36;3.55;;;1.00;;
44772;SDS011;30492;52.088;5.122;2022-08-24T11:59:01;6.15;;;1.10;;
44772;SDS011;30492;52.088;5.122;2022-08-24T12:02:38;2.22;;;0.93;;
44772;SDS011;30492;52.088;5.122;2022-08-24T12:06:26;7.43;;;1.38;;
44772;SDS011;30492;52.088;5.122;2022-08-24T12:10:15;1.52;;;1.00;;
44772;SDS011;30492;52.088;5.122;2022-08-24T12:14:01;1.07;;;0.67;;
44772;SDS011;30492;52.088;5.122;2022-08-24T12:17:45;1.02;;;0.80;;
44772;SDS011;30492;52.088;5.122;2022-08-24T12:21:32;4.03;;;0.93;;
44772;SDS011;30492;52.088;5.122;2022-08-24T12:25:17;5.63;;;1.05;;
44772;SDS011;30492;52.088;5.122;2022-08-24T12:29:15;7.22;;;1.20;;
44772;SDS011;30492;52.088;5.122;2022-08-24T12:33:00;2.78;;;0.88;;
44772;SDS011;30492;52.088;5.122;2022-08-24T12:36:45;2.30;;;1.45;;
44772;SDS011;30492;52.088;5.122;2022-08-24T12:40:37;5.53;;;0.90;;
44772;SDS011;30492;52.088;5.122;2022-08-24T12:44:17;7.20;;;1.23;;
44772;SDS011;30492;52.088;5.122;2022-08-24T12:48:05;3.30;;;0.85;;
44772;SDS011;30492;52.088;5.122;2022-08-24T12:52:01;3.10;;;0.90;;
44772;SDS011;30492;52.088;5.122;2022-08-24T12:56:03;1.33;;;0.60;;
44772;SDS011;30492;52.088;5.122;2022-08-24T13:00:00;3.08;;;0.82;;
44772;SDS011;30492;52.088;5.122;2022-08-24T13:03:43;5.05;;;0.85;;
44772;SDS011;30492;52.088;5.122;2022-08-24T13:07:27;1.05;;;0.70;;
44772;SDS011;30492;52.088;5.122;2022-08-24T13:11:11;2.70;;;0.50;;
44772;SDS011;30492;52.088;5.122;2022-08-24T13:14:52;3.83;;;0.95;;
44772;SDS011;30492;52.088;5.122;2022-08-24T13:26:40;4.18;;;1.13;;
44772;SDS011;30492;52.088;5.122;2022-08-24T13:30:21;2.67;;;1.02;;
44772;SDS011;30492;52.088;5.122;2022-08-24T13:42:40;1.85;;;0.90;;
44772;SDS011;30492;52.088;5.122;2022-08-24T13:46:52;3.70;;;1.15;;
44772;SDS011;30492;52.088;5.122;2022-08-24T13:50:41;5.85;;;1.10;;
44772;SDS011;30492;52.088;5.122;2022-08-24T13:54:29;7.82;;;1.38;;
44772;SDS011;30492;52.088;5.122;2022-08-24T13:58:20;3.60;;;0.80;;
44772;SDS011;30492;52.088;5.122;2022-08-24T14:02:16;1.25;;;0.90;;
44772;SDS011;30492;52.088;5.122;2022-08-24T14:06:15;5.07;;;1.90;;
44772;SDS011;30492;52.088;5.122;2022-08-24T14:10:00;3.28;;;1.08;;
44772;SDS011;30492;52.088;5.122;2022-08-24T14:13:54;4.63;;;1.08;;
44772;SDS011;30492;52.088;5.122;2022-08-24T14:17:41;2.15;;;0.98;;
44772;SDS011;30492;52.088;5.122;2022-08-24T14:21:23;1.25;;;1.10;;
44772;SDS011;30492;52.088;5.122;2022-08-24T14:25:15;2.05;;;1.10;;
44772;SDS011;30492;52.088;5.122;2022-08-24T14:39:53;2.35;;;1.25;;
44772;SDS011;30492;52.088;5.122;2022-08-24T14:43:43;8.38;;;0.95;;
44772;SDS011;30492;52.088;5.122;2022-08-24T14:47:54;1.40;;;1.00;;
44772;SDS011;30492;52.088;5.122;2022-08-24T14:51:51;3.80;;;1.10;;
44772;SDS011;30492;52.088;5.122;2022-08-24T14:55:39;1.90;;;1.00;;
44772;SDS011;30492;52.088;5.122;2022-08-24T14:59:25;1.55;;;1.13;;
44772;SDS011;30492;52.088;5.122;2022-08-24T15:03:27;2.13;;;0.90;;
44772;SDS011;30492;52.088;5.122;2022-08-24T15:07:23;2.70;;;1.00;;
44772;SDS011;30492;52.088;5.122;2022-08-24T15:11:05;2.95;;;1.10;;
44772;SDS011;30492;52.088;5.122;2022-08-24T15:14:50;1.33;;;0.93;;
44772;SDS011;30492;52.088;5.122;2022-08-24T15:18:34;1.27;;;0.90;;
44772;SDS011;30492;52.088;5.122;2022-08-24T15:22:23;2.07;;;1.10;;
44772;SDS011;30492;52.088;5.122;2022-08-24T15:26:06;1.77;;;1.00;;
44772;SDS011;30492;52.088;5.122;2022-08-24T15:29:51;2.90;;;1.38;;
44772;SDS011;30492;52.088;5.122;2022-08-24T15:33:34;4.28;;;1.30;;
44772;SDS011;30492;52.088;5.122;2022-08-24T15:37:29;4.05;;;0.85;;
44772;SDS011;30492;52.088;5.122;2022-08-24T15:41:11;2.85;;;1.05;;
44772;SDS011;30492;52.088;5.122;2022-08-24T15:44:51;1.58;;;1.05;;
44772;SDS011;30492;52.088;5.122;2022-08-24T15:48:29;1.25;;;0.90;;
44772;SDS011;30492;52.088;5.122;2022-08-24T15:52:23;1.35;;;1.13;;
44772;SDS011;30492;52.088;5.122;2022-08-24T15:56:27;3.20;;;1.00;;
44772;SDS011;30492;52.088;5.122;2022-08-24T16:00:11;2.85;;;1.20;;
44772;SDS011;30492;52.088;5.122;2022-08-24T16:04:07;1.02;;;0.80;;
44772;SDS011;30492;52.088;5.122;2022-08-24T16:08:04;1.25;;;0.93;;
44772;SDS011;30492;52.088;5.122;2022-08-24T16:15:10;1.60;;;1.08;;
44772;SDS011;30492;52.088;5.122;2022-08-24T16:18:53;1.77;;;0.90;;
44772;SDS011;30492;52.088;5.122;2022-08-24T16:22:36;1.48;;;1.10;;
44772;SDS011;30492;52.088;5.122;2022-08-24T16:26:21;1.27;;;1.05;;
44772;SDS011;30492;52.088;5.122;2022-08-24T16:30:11;1.67;;;1.02;;
44772;SDS011;30492;52.088;5.122;2022-08-24T16:34:08;2.25;;;1.10;;
44772;SDS011;30492;52.088;5.122;2022-08-24T16:37:53;3.13;;;1.20;;
44772;SDS011;30492;52.088;5.122;2022-08-24T16:41:34;1.95;;;1.20;;
44772;SDS011;30492;52.088;5.122;2022-08-24T16:45:15;2.95;;;1.15;;
44772;SDS011;30492;52.088;5.122;2022-08-24T16:48:56;1.52;;;1.10;;
44772;SDS011;30492;52.088;5.122;2022-08-24T16:52:35;2.28;;;1.10;;
44772;SDS011;30492;52.088;5.122;2022-08-24T16:56:14;1.80;;;1.05;;
44772;SDS011;30492;52.088;5.122;2022-08-24T16:59:54;1.17;;;0.95;;
44772;SDS011;30492;52.088;5.122;2022-08-24T17:03:35;4.93;;;1.42;;
44772;SDS011;30492;52.088;5.122;2022-08-24T17:07:15;4.28;;;1.23;;
44772;SDS011;30492;52.088;5.122;2022-08-24T17:10:56;5.32;;;1.45;;
44772;SDS011;30492;52.088;5.122;2022-08-24T17:14:35;2.50;;;1.17;;
44772;SDS011;30492;52.088;5.122;2022-08-24T17:17:57;4.60;;;1.85;;
44772;SDS011;30492;52.088;5.122;2022-08-24T17:21:39;1.88;;;1.10;;
44772;SDS011;30492;52.088;5.122;2022-08-24T17:25:18;2.40;;;1.33;;
44772;SDS011;30492;52.088;5.122;2022-08-24T17:28:56;2.28;;;1.40;;
44772;SDS011;30492;52.088;5.122;2022-08-24T17:32:35;4.35;;;1.58;;
44772;SDS011;30492;52.088;5.122;2022-08-24T17:36:16;2.25;;;1.02;;
44772;SDS011;30492;52.088;5.122;2022-08-24T17:39:56;2.08;;;1.30;;
44772;SDS011;30492;52.088;5.122;2022-08-24T17:43:35;4.30;;;1.70;;
44772;SDS011;30492;52.088;5.122;2022-08-24T17:47:13;1.70;;;1.10;;
44772;SDS011;30492;52.088;5.122;2022-08-24T17:50:52;1.85;;;1.10;;
44772;SDS011;30492;52.088;5.122;2022-08-24T17:54:31;1.42;;;1.00;;
44772;SDS011;30492;52.088;5.122;2022-08-24T17:58:11;2.38;;;1.52;;
44772;SDS011;30492;52.088;5.122;2022-08-24T18:01:53;2.20;;;1.15;;
44772;SDS011;30492;52.088;5.122;2022-08-24T18:05:33;1.88;;;1.30;;
44772;SDS011;30492;52.088;5.122;2022-08-24T18:09:15;2.23;;;1.17;;
44772;SDS011;30492;52.088;5.122;2022-08-24T18:12:57;2.10;;;1.00;;
44772;SDS011;30492;52.088;5.122;2022-08-24T18:16:36;2.75;;;1.20;;
44772;SDS011;30492;52.088;5.122;2022-08-24T18:20:16;4.18;;;1.40;;
44772;SDS011;30492;52.088;5.122;2022-08-24T18:24:00;1.80;;;1.00;;
44772;SDS011;30492;52.088;5.122;2022-08-24T18:27:39;2.63;;;1.25;;
44772;SDS011;30492;52.088;5.122;2022-08-24T18:31:21;3.13;;;1.40;;
44772;SDS011;30492;52.088;5.122;2022-08-24T18:35:02;1.50;;;1.10;;
44772;SDS011;30492;52.088;5.122;2022-08-24T18:38:42;1.58;;;1.05;;
44772;SDS011;30492;52.088;5.122;2022-08-24T18:42:21;2.27;;;1.50;;
44772;SDS011;30492;52.088;5.122;2022-08-24T18:46:02;2.20;;;1.48;;
44772;SDS011;30492;52.088;5.122;2022-08-24T18:49:42;2.80;;;1.45;;
44772;SDS011;30492;52.088;5.122;2022-08-24T18:53:20;1.83;;;1.30;;
44772;SDS011;30492;52.088;5.122;2022-08-24T18:57:03;2.72;;;1.30;;
44772;SDS011;30492;52.088;5.122;2022-08-24T19:00:42;2.20;;;1.30;;
44772;SDS011;30492;52.088;5.122;2022-08-24T19:04:21;3.55;;;1.40;;
44772;SDS011;30492;52.088;5.122;2022-08-24T19:08:03;2.60;;;1.17;;
44772;SDS011;30492;52.088;5.122;2022-08-24T19:11:42;1.98;;;1.45;;
44772;SDS011;30492;52.088;5.122;2022-08-24T19:15:21;2.33;;;1.30;;
44772;SDS011;30492;52.088;5.122;2022-08-24T19:19:01;1.90;;;1.02;;
44772;SDS011;30492;52.088;5.122;2022-08-24T19:22:42;1.90;;;1.30;;
44772;SDS011;30492;52.088;5.122;2022-08-24T19:26:23;1.75;;;1.33;;
44772;SDS011;30492;52.088;5.122;2022-08-24T19:30:02;2.25;;;1.30;;
44772;SDS011;30492;52.088;5.122;2022-08-24T19:33:43;2.83;;;1.33;;
44772;SDS011;30492;52.088;5.122;2022-08-24T19:37:22;1.65;;;1.15;;
44772;SDS011;30492;52.088;5.122;2022-08-24T19:41:00;1.88;;;1.17;;
44772;SDS011;30492;52.088;5.122;2022-08-24T19:44:43;2.15;;;1.20;;
44772;SDS011;30492;52.088;5.122;2022-08-24T19:48:39;4.22;;;1.65;;
44772;SDS011;30492;52.088;5.122;2022-08-24T19:52:17;2.00;;;1.17;;
44772;SDS011;30492;52.088;5.122;2022-08-24T19:55:55;3.33;;;1.38;;
44772;SDS011;30492;52.088;5.122;2022-08-24T19:59:33;1.80;;;1.25;;
44772;SDS011;30492;52.088;5.122;2022-08-24T20:03:20;2.67;;;1.70;;
44772;SDS011;30492;52.088;5.122;2022-08-24T20:06:58;4.78;;;1.50;;
44772;SDS011;30492;52.088;5.122;2022-08-24T20:10:38;7.28;;;1.70;;
44772;SDS011;30492;52.088;5.122;2022-08-24T20:14:16;3.38;;;1.60;;
44772;SDS011;30492;52.088;5.122;2022-08-24T20:17:55;3.05;;;1.52;;
44772;SDS011;30492;52.088;5.122;2022-08-24T20:21:37;1.55;;;1.23;;
44772;SDS011;30492;52.088;5.122;2022-08-24T20:25:16;2.60;;;1.52;;
44772;SDS011;30492;52.088;5.122;2022-08-24T20:28:55;4.05;;;2.00;;
44772;SDS011;30492;52.088;5.122;2022-08-24T20:32:33;3.58;;;2.00;;
44772;SDS011;30492;52.088;5.122;2022-08-24T20:36:16;2.95;;;1.67;;
44772;SDS011;30492;52.088;5.122;2022-08-24T20:40:02;6.25;;;2.08;;
44772;SDS011;30492;52.088;5.122;2022-08-24T20:43:41;3.63;;;2.38;;
44772;SDS011;30492;52.088;5.122;2022-08-24T20:47:19;3.53;;;2.10;;
44772;SDS011;30492;52.088;5.122;2022-08-24T20:50:59;2.95;;;1.85;;
44772;SDS011;30492;52.088;5.122;2022-08-24T20:54:39;3.28;;;1.88;;
44772;SDS011;30492;52.088;5.122;2022-08-24T20:58:20;3.30;;;1.67;;
44772;SDS011;30492;52.088;5.122;2022-08-24T21:02:00;6.65;;;2.20;;
44772;SDS011;30492;52.088;5.122;2022-08-24T21:05:38;3.08;;;2.13;;
44772;SDS011;30492;52.088;5.122;2022-08-24T21:09:17;2.83;;;1.60;;
44772;SDS011;30492;52.088;5.122;2022-08-24T21:12:56;2.53;;;1.80;;
44772;SDS011;30492;52.088;5.122;2022-08-24T21:16:37;3.72;;;1.90;;
44772;SDS011;30492;52.088;5.122;2022-08-24T21:20:18;2.88;;;2.08;;
44772;SDS011;30492;52.088;5.122;2022-08-24T21:23:56;2.93;;;2.37;;
44772;SDS011;30492;52.088;5.122;2022-08-24T21:27:36;2.50;;;1.60;;
44772;SDS011;30492;52.088;5.122;2022-08-24T21:31:16;2.15;;;1.70;;
44772;SDS011;30492;52.088;5.122;2022-08-24T21:34:57;3.20;;;2.10;;
44772;SDS011;30492;52.088;5.122;2022-08-24T21:38:36;3.45;;;1.90;;
44772;SDS011;30492;52.088;5.122;2022-08-24T21:42:14;2.40;;;1.80;;
44772;SDS011;30492;52.088;5.122;2022-08-24T21:45:33;2.70;;;1.85;;
44772;SDS011;30492;52.088;5.122;2022-08-24T21:49:11;5.50;;;2.60;;
44772;SDS011;30492;52.088;5.122;2022-08-24T21:52:50;3.47;;;2.28;;
44772;SDS011;30492;52.088;5.122;2022-08-24T21:56:30;5.65;;;2.95;;
44772;SDS011;30492;52.088;5.122;2022-08-24T22:00:11;3.50;;;2.58;;
44772;SDS011;30492;52.088;5.122;2022-08-24T22:03:53;3.20;;;2.22;;
44772;SDS011;30492;52.088;5.122;2022-08-24T22:07:32;3.47;;;2.40;;
44772;SDS011;30492;52.088;5.122;2022-08-24T22:11:13;5.72;;;3.00;;
44772;SDS011;30492;52.088;5.122;2022-08-24T22:14:53;4.55;;;2.42;;
44772;SDS011;30492;52.088;5.122;2022-08-24T22:18:33;3.50;;;2.47;;
44772;SDS011;30492;52.088;5.122;2022-08-24T22:22:12;2.67;;;2.22;;
44772;SDS011;30492;52.088;5.122;2022-08-24T22:25:50;4.05;;;2.70;;
44772;SDS011;30492;52.088;5.122;2022-08-24T22:29:31;4.25;;;2.80;;
44772;SDS011;30492;52.088;5.122;2022-08-24T22:33:11;3.88;;;2.95;;
44772;SDS011;30492;52.088;5.122;2022-08-24T22:36:50;7.18;;;2.80;;
44772;SDS011;30492;52.088;5.122;2022-08-24T22:40:30;3.90;;;2.17;;
44772;SDS011;30492;52.088;5.122;2022-08-24T22:44:08;5.00;;;2.67;;
44772;SDS011;30492;52.088;5.122;2022-08-24T22:47:51;5.95;;;3.50;;
44772;SDS011;30492;52.088;5.122;2022-08-24T22:51:30;4.10;;;2.55;;
44772;SDS011;30492;52.088;5.122;2022-08-24T22:55:10;6.88;;;3.08;;
44772;SDS011;30492;52.088;5.122;2022-08-24T22:58:49;6.88;;;4.13;;
44772;SDS011;30492;52.088;5.122;2022-08-24T23:02:29;6.53;;;4.05;;
44772;SDS011;30492;52.088;5.122;2022-08-24T23:06:09;4.55;;;3.22;;
44772;SDS011;30492;52.088;5.122;2022-08-24T23:09:48;7.05;;;3.55;;
44772;SDS011;30492;52.088;5.122;2022-08-24T23:13:26;8.75;;;3.90;;
44772;SDS011;30492;52.088;5.122;2022-08-24T23:17:05;6.65;;;4.18;;
44772;SDS011;30492;52.088;5.122;2022-08-24T23:20:44;5.60;;;4.10;;
44772;SDS011;30492;52.088;5.122;2022-08-24T23:24:23;5.35;;;4.43;;
44772;SDS011;30492;52.088;5.122;2022-08-24T23:28:03;4.68;;;3.70;;